createdAt,value
2019-03-01T00:00:35.382Z,31.97
2019-03-01T00:03:11.726Z,32.33
2019-03-01T00:06:13.700Z,32.73
2019-03-01T00:09:09.979Z,32.17
2019-03-01T00:12:16.118Z,31.43
2019-03-01T00:15:33.724Z,31.40
2019-03-01T00:18:40.344Z,32.23
2019-03-01T00:21:38.736Z,32.37
2019-03-01T00:24:58.443Z,32.33
2019-03-01T00:28:06.710Z,32.17
2019-03-01T00:31:04.187Z,31.70
2019-03-01T00:34:11.828Z,31.80
2019-03-01T00:37:29.511Z,31.27
2019-03-01T00:40:13.723Z,31.80
2019-03-01T00:43:14.415Z,32.13
2019-03-01T00:45:49.147Z,31.70
2019-03-01T00:48:23.871Z,32.23
2019-03-01T00:50:58.624Z,31.90
2019-03-01T00:53:33.332Z,32.63
2019-03-01T00:56:08.165Z,32.93
2019-03-01T00:58:42.889Z,32.03
2019-03-01T01:01:17.707Z,32.30
2019-03-01T01:03:53.396Z,33.67
2019-03-01T01:06:28.272Z,31.90
2019-03-01T01:09:02.985Z,31.93
2019-03-01T01:11:39.330Z,31.87
2019-03-01T01:14:14.125Z,31.13
2019-03-01T01:16:49.080Z,32.03
2019-03-01T01:19:23.872Z,32.40
2019-03-01T01:21:58.760Z,32.77
2019-03-01T01:24:33.488Z,31.87
2019-03-01T01:27:08.339Z,32.00
2019-03-01T01:29:43.052Z,32.30
2019-03-01T01:32:18.823Z,32.90
2019-03-01T01:34:53.548Z,32.43
2019-03-01T01:37:28.372Z,31.70
2019-03-01T01:40:03.234Z,32.17
2019-03-01T01:42:37.979Z,32.27
2019-03-01T01:45:13.103Z,31.60
2019-03-01T01:47:47.831Z,33.10
2019-03-01T01:50:23.650Z,32.13
2019-03-01T01:52:58.371Z,32.00
2019-03-01T01:55:33.127Z,31.70
2019-03-01T01:58:07.852Z,32.17
2019-03-01T02:00:42.720Z,32.30
2019-03-01T02:03:17.531Z,32.50
2019-03-01T02:05:52.483Z,31.83
2019-03-01T02:08:27.400Z,31.53
2019-03-01T02:11:02.197Z,32.47
2019-03-01T02:13:36.947Z,31.73
2019-03-01T02:16:11.679Z,31.53
2019-03-01T02:18:46.408Z,31.57
2019-03-01T02:21:21.284Z,32.77
2019-03-01T02:23:56.011Z,31.73
2019-03-01T02:26:30.732Z,31.57
2019-03-01T02:29:05.535Z,31.67
2019-03-01T02:31:44.360Z,31.97
2019-03-01T02:34:19.244Z,31.87
2019-03-01T02:36:53.973Z,30.80
2019-03-01T02:39:28.708Z,31.03
2019-03-01T02:42:03.444Z,32.10
2019-03-01T02:44:38.181Z,31.83
2019-03-01T02:47:12.913Z,32.13
2019-03-01T02:49:48.713Z,31.67
2019-03-01T02:52:23.453Z,31.23
2019-03-01T02:54:58.199Z,31.93
2019-03-01T02:57:32.981Z,31.13
2019-03-01T03:00:10.868Z,31.00
2019-03-01T03:02:46.207Z,30.90
2019-03-01T03:05:21.041Z,31.40
2019-03-01T03:08:00.646Z,31.30
2019-03-01T03:10:35.425Z,30.97
2019-03-01T03:13:10.565Z,30.17
2019-03-01T03:15:47.327Z,30.77
2019-03-01T03:18:22.056Z,30.50
2019-03-01T03:20:56.868Z,30.60
2019-03-01T03:23:31.616Z,30.63
2019-03-01T03:26:06.496Z,30.47
2019-03-01T03:28:41.236Z,31.03
2019-03-01T03:31:15.963Z,30.67
2019-03-01T03:33:51.671Z,30.63
2019-03-01T03:36:26.609Z,31.77
2019-03-01T03:39:02.582Z,30.47
2019-03-01T03:41:38.961Z,30.13
2019-03-01T03:44:14.895Z,30.27
2019-03-01T03:46:49.734Z,30.10
2019-03-01T03:49:24.492Z,29.73
2019-03-01T03:51:59.387Z,29.97
2019-03-01T03:54:34.201Z,29.83
2019-03-01T03:57:09.032Z,31.23
2019-03-01T03:59:44.059Z,31.60
2019-03-01T04:02:18.860Z,30.70
2019-03-01T04:04:53.623Z,30.47
2019-03-01T04:07:28.700Z,30.07
2019-03-01T04:10:03.640Z,30.10
2019-03-01T04:12:39.329Z,29.80
2019-03-01T04:15:14.346Z,30.33
2019-03-01T04:17:49.243Z,29.90
2019-03-01T04:20:23.995Z,29.70
2019-03-01T04:22:58.819Z,30.60
2019-03-01T04:25:33.655Z,30.23
2019-03-01T04:28:08.491Z,30.60
2019-03-01T04:30:43.328Z,30.27
2019-03-01T04:33:18.349Z,30.00
2019-03-01T04:35:53.111Z,30.13
2019-03-01T04:38:27.860Z,29.90
2019-03-01T04:41:03.883Z,30.87
2019-03-01T04:43:38.732Z,30.40
2019-03-01T04:46:13.483Z,30.20
2019-03-01T04:48:48.227Z,29.60
2019-03-01T04:51:22.998Z,30.47
2019-03-01T04:53:57.815Z,30.07
2019-03-01T04:56:32.692Z,30.23
2019-03-01T04:59:07.443Z,29.90
2019-03-01T05:01:42.280Z,31.57
2019-03-01T05:04:17.045Z,31.00
2019-03-01T05:06:51.855Z,31.00
2019-03-01T05:09:26.594Z,31.50
2019-03-01T05:12:03.675Z,30.63
2019-03-01T05:14:38.498Z,31.93
2019-03-01T05:17:13.455Z,30.97
2019-03-01T05:19:48.278Z,30.87
2019-03-01T05:22:23.159Z,30.37
2019-03-01T05:24:58.011Z,32.47
2019-03-01T05:27:36.321Z,30.83
2019-03-01T05:30:12.558Z,31.07
2019-03-01T05:32:47.567Z,30.17
2019-03-01T05:35:22.499Z,30.50
2019-03-01T05:37:57.329Z,29.60
2019-03-01T05:40:32.102Z,29.83
2019-03-01T05:43:06.863Z,30.00
2019-03-01T05:45:41.647Z,29.40
2019-03-01T05:48:16.455Z,30.60
2019-03-01T05:50:51.460Z,30.83
2019-03-01T05:53:26.243Z,30.77
2019-03-01T05:56:06.024Z,30.33
2019-03-01T05:59:03.690Z,30.63
2019-03-01T06:02:19.860Z,30.47
2019-03-01T06:05:00.827Z,30.50
2019-03-01T06:08:13.378Z,29.87
2019-03-01T06:11:18.489Z,29.77
2019-03-01T06:14:34.986Z,29.70
2019-03-01T06:17:51.218Z,29.93
2019-03-01T06:20:50.939Z,29.47
2019-03-01T06:24:00.055Z,29.97
2019-03-01T06:27:06.536Z,29.40
2019-03-01T06:30:19.747Z,29.57
2019-03-01T06:33:18.452Z,28.67
2019-03-01T06:36:03.188Z,29.50
2019-03-01T06:39:28.102Z,29.73
2019-03-01T06:42:48.987Z,29.77
2019-03-01T06:45:41.289Z,29.20
2019-03-01T06:48:25.893Z,29.83
2019-03-01T06:51:08.203Z,30.67
2019-03-01T06:53:44.442Z,32.13
2019-03-01T06:56:19.308Z,31.90
2019-03-01T06:58:57.438Z,30.03
2019-03-01T07:01:40.959Z,30.10
2019-03-01T07:04:17.515Z,30.37
2019-03-01T07:06:52.279Z,29.93
2019-03-01T07:09:27.040Z,29.40
2019-03-01T07:12:01.787Z,29.93
2019-03-01T07:14:36.564Z,29.70
2019-03-01T07:17:11.331Z,29.93
2019-03-01T07:19:46.123Z,29.47
2019-03-01T07:22:20.947Z,29.73
2019-03-01T07:24:55.688Z,30.13
2019-03-01T07:27:30.463Z,29.13
2019-03-01T07:30:06.227Z,29.67
2019-03-01T07:32:41.131Z,30.13
2019-03-01T07:35:15.871Z,30.40
2019-03-01T07:37:50.643Z,29.57
2019-03-01T07:40:25.462Z,29.87
2019-03-01T07:43:00.307Z,29.57
2019-03-01T07:45:35.150Z,30.00
2019-03-01T07:48:09.917Z,30.43
2019-03-01T07:50:44.660Z,29.83
2019-03-01T07:53:19.413Z,30.87
2019-03-01T07:55:54.231Z,30.60
2019-03-01T07:58:28.992Z,31.13
2019-03-01T08:01:05.050Z,31.50
2019-03-01T08:03:39.935Z,31.60
2019-03-01T08:06:14.726Z,30.67
2019-03-01T08:08:49.545Z,29.77
2019-03-01T08:11:24.340Z,29.73
2019-03-01T08:13:59.139Z,29.33
2019-03-01T08:16:34.007Z,29.93
2019-03-01T08:19:08.920Z,30.30
2019-03-01T08:21:46.071Z,30.63
2019-03-01T08:24:20.212Z,31.23
2019-03-01T08:26:57.034Z,31.10
2019-03-01T08:29:34.101Z,31.50
2019-03-01T08:32:07.956Z,31.03
2019-03-01T08:34:42.782Z,31.43
2019-03-01T08:37:18.396Z,30.97
2019-03-01T08:39:53.200Z,30.13
2019-03-01T08:42:29.014Z,29.80
2019-03-01T08:45:04.179Z,29.53
2019-03-01T08:47:40.177Z,29.27
2019-03-01T08:50:15.908Z,29.90
2019-03-01T08:52:50.727Z,29.67
2019-03-01T08:55:25.550Z,29.80
2019-03-01T08:58:04.651Z,30.03
2019-03-01T09:00:37.467Z,29.07
2019-03-01T09:03:22.448Z,29.90
2019-03-01T09:05:52.924Z,30.30
2019-03-01T09:08:27.759Z,30.20
2019-03-01T09:11:05.579Z,31.03
2019-03-01T09:13:39.279Z,29.57
2019-03-01T09:16:14.099Z,30.17
2019-03-01T09:18:50.103Z,29.87
2019-03-01T09:21:25.316Z,30.40
2019-03-01T09:24:00.147Z,30.00
2019-03-01T09:26:35.942Z,30.73
2019-03-01T09:29:13.035Z,31.37
2019-03-01T09:31:47.139Z,31.13
2019-03-01T09:34:22.056Z,30.53
2019-03-01T09:36:57.988Z,29.87
2019-03-01T09:39:32.829Z,30.10
2019-03-01T09:42:07.688Z,30.13
2019-03-01T09:44:42.535Z,29.77
2019-03-01T09:47:17.292Z,30.20
2019-03-01T09:49:52.057Z,30.17
2019-03-01T09:52:27.764Z,31.33
2019-03-01T09:55:02.529Z,31.50
2019-03-01T09:57:37.600Z,30.90
2019-03-01T10:00:13.451Z,30.13
2019-03-01T10:02:48.679Z,30.90
2019-03-01T10:05:23.443Z,31.67
2019-03-01T10:07:58.339Z,30.67
2019-03-01T10:10:33.335Z,30.40
2019-03-01T10:13:08.083Z,30.80
2019-03-01T10:15:42.995Z,30.27
2019-03-01T10:18:17.754Z,30.83
2019-03-01T10:20:53.579Z,30.13
2019-03-01T10:23:28.311Z,31.03
2019-03-01T10:26:03.148Z,31.07
2019-03-01T10:28:37.967Z,31.93
2019-03-01T10:31:12.736Z,31.67
2019-03-01T10:33:47.483Z,31.23
2019-03-01T10:36:22.330Z,30.93
2019-03-01T10:38:57.152Z,30.90
2019-03-01T10:41:31.943Z,30.47
2019-03-01T10:44:06.729Z,30.90
2019-03-01T10:46:41.491Z,29.80
2019-03-01T10:49:16.235Z,30.37
2019-03-01T10:51:51.160Z,31.57
2019-03-01T10:54:25.933Z,31.43
2019-03-01T10:57:00.760Z,31.67
2019-03-01T10:59:35.518Z,31.37
2019-03-01T11:02:10.465Z,30.70
2019-03-01T11:04:45.296Z,31.27
2019-03-01T11:07:20.211Z,30.87
2019-03-01T11:09:55.014Z,33.57
2019-03-01T11:12:29.793Z,33.77
2019-03-01T11:15:05.223Z,31.10
2019-03-01T11:17:40.048Z,30.93
2019-03-01T11:20:15.944Z,30.10
2019-03-01T11:22:50.861Z,30.77
2019-03-01T11:25:25.716Z,30.93
2019-03-01T11:28:00.460Z,32.13
2019-03-01T11:30:36.479Z,31.70
2019-03-01T11:33:11.299Z,32.97
2019-03-01T11:35:47.187Z,31.33
2019-03-01T11:38:22.168Z,30.63
2019-03-01T11:40:57.121Z,37.50
2019-03-01T11:43:32.028Z,36.27
2019-03-01T11:46:06.947Z,129.60
2019-03-01T11:48:41.735Z,107.53
2019-03-01T11:51:16.508Z,40.63
2019-03-01T11:53:51.411Z,45.73
2019-03-01T11:56:26.179Z,36.77
2019-03-01T11:59:01.025Z,69.13
2019-03-01T12:01:36.093Z,50.03
2019-03-01T12:04:11.887Z,36.73
2019-03-01T12:06:46.807Z,33.17
2019-03-01T12:09:21.555Z,34.23
2019-03-01T12:11:56.327Z,30.80
2019-03-01T12:14:33.132Z,31.20
2019-03-01T12:17:08.051Z,31.50
2019-03-01T12:19:42.815Z,31.20
2019-03-01T12:22:17.646Z,31.83
2019-03-01T12:24:52.399Z,31.30
2019-03-01T12:27:27.197Z,32.17
2019-03-01T12:30:01.983Z,31.80
2019-03-01T12:32:36.979Z,31.50
2019-03-01T12:35:12.683Z,31.50
2019-03-01T12:37:47.640Z,31.30
2019-03-01T12:40:24.052Z,31.93
2019-03-01T12:42:58.899Z,31.20
2019-03-01T12:45:33.643Z,32.37
2019-03-01T12:48:09.510Z,32.07
2019-03-01T12:50:44.258Z,31.23
2019-03-01T12:53:20.224Z,31.97
2019-03-01T12:55:56.081Z,32.57
2019-03-01T12:58:30.884Z,31.80
2019-03-01T13:01:05.803Z,32.87
2019-03-01T13:03:43.710Z,32.77
2019-03-01T13:06:17.147Z,34.77
2019-03-01T13:08:52.417Z,32.33
2019-03-01T13:11:27.414Z,37.23
2019-03-01T13:14:02.331Z,32.70
2019-03-01T13:16:37.339Z,32.40
2019-03-01T13:19:12.224Z,34.27
2019-03-01T13:21:49.148Z,32.93
2019-03-01T13:24:23.622Z,32.13
2019-03-01T13:26:58.375Z,33.50
2019-03-01T13:29:33.325Z,32.53
2019-03-01T13:32:08.259Z,32.97
2019-03-01T13:34:45.818Z,33.17
2019-03-01T13:37:21.623Z,33.73
2019-03-01T13:39:56.440Z,32.60
2019-03-01T13:42:31.271Z,32.70
2019-03-01T13:45:06.988Z,32.95
2019-03-01T13:47:43.949Z,32.50
2019-03-01T13:50:18.763Z,32.70
2019-03-01T13:52:53.688Z,33.63
2019-03-01T13:55:28.541Z,33.27
2019-03-01T13:58:05.000Z,33.17
2019-03-01T14:00:39.912Z,33.47
2019-03-01T14:03:15.801Z,33.80
2019-03-01T14:05:54.774Z,35.57
2019-03-01T14:08:30.194Z,33.03
2019-03-01T14:11:05.044Z,33.57
2019-03-01T14:13:39.807Z,34.73
2019-03-01T14:16:17.044Z,33.40
2019-03-01T14:18:51.103Z,33.00
2019-03-01T14:21:25.859Z,32.77
2019-03-01T14:24:00.825Z,33.10
2019-03-01T14:26:36.619Z,32.87
2019-03-01T14:29:12.857Z,33.00
2019-03-01T14:31:48.959Z,33.83
2019-03-01T14:34:23.720Z,33.20
2019-03-01T14:36:58.475Z,33.83
2019-03-01T14:39:33.239Z,33.47
2019-03-01T14:42:11.034Z,33.10
2019-03-01T14:44:44.515Z,33.67
2019-03-01T14:47:19.339Z,33.60
2019-03-01T14:49:57.779Z,33.47
2019-03-01T14:52:30.751Z,34.03
2019-03-01T14:55:07.748Z,34.58
2019-03-01T14:57:47.073Z,35.50
2019-03-01T15:00:31.947Z,35.03
2019-03-01T15:03:32.969Z,35.00
2019-03-01T15:06:09.847Z,36.87
2019-03-01T15:08:45.142Z,41.77
2019-03-01T15:11:21.747Z,35.10
2019-03-01T15:13:57.936Z,73.83
2019-03-01T15:16:32.780Z,43.90
2019-03-01T15:19:08.022Z,55.23
2019-03-01T15:21:44.144Z,88.13
2019-03-01T15:24:19.880Z,38.30
2019-03-01T15:27:00.215Z,38.53
2019-03-01T15:29:33.359Z,38.23
2019-03-01T15:32:08.196Z,36.80
2019-03-01T15:34:42.960Z,37.47
2019-03-01T15:37:17.695Z,37.17
2019-03-01T15:39:54.231Z,38.33
2019-03-01T15:42:30.156Z,37.00
2019-03-01T15:45:05.924Z,39.10
2019-03-01T15:47:41.035Z,38.57
2019-03-01T15:50:15.871Z,39.07
2019-03-01T15:52:50.887Z,40.47
2019-03-01T15:55:25.803Z,43.53
2019-03-01T15:58:00.583Z,41.23
2019-03-01T16:00:35.579Z,40.93
2019-03-01T16:03:10.484Z,42.57
2019-03-01T16:05:45.671Z,45.03
2019-03-01T16:08:20.555Z,51.50
2019-03-01T16:10:55.386Z,44.23
2019-03-01T16:13:30.168Z,107.73
2019-03-01T16:16:05.147Z,45.90
2019-03-01T16:18:40.159Z,45.83
2019-03-01T16:21:15.063Z,45.80
2019-03-01T16:23:50.027Z,47.50
2019-03-01T16:26:29.778Z,46.27
2019-03-01T16:29:03.942Z,56.37
2019-03-01T16:31:37.901Z,61.40
2019-03-01T16:34:13.611Z,52.17
2019-03-01T16:36:52.103Z,49.20
2019-03-01T16:39:26.966Z,50.83
2019-03-01T16:42:01.884Z,54.47
2019-03-01T16:44:36.667Z,57.87
2019-03-01T16:47:11.580Z,55.17
2019-03-01T16:49:46.455Z,55.70
2019-03-01T16:52:21.301Z,56.23
2019-03-01T16:54:56.158Z,51.70
2019-03-01T16:57:31.167Z,54.67
2019-03-01T17:00:07.727Z,57.48
2019-03-01T17:02:43.180Z,54.80
2019-03-01T17:05:18.295Z,55.03
2019-03-01T17:07:54.132Z,53.17
2019-03-01T17:10:30.091Z,58.97
2019-03-01T17:13:06.157Z,52.60
2019-03-01T17:15:41.025Z,67.03
2019-03-01T17:18:15.986Z,63.60
2019-03-01T17:20:50.869Z,66.30
2019-03-01T17:23:25.736Z,65.20
2019-03-01T17:26:00.688Z,65.40
2019-03-01T17:28:35.752Z,63.83
2019-03-01T17:31:10.739Z,72.70
2019-03-01T17:33:48.875Z,61.23
2019-03-01T17:36:22.555Z,71.60
2019-03-01T17:38:57.291Z,78.13
2019-03-01T17:41:32.149Z,109.63
2019-03-01T17:44:08.649Z,136.90
2019-03-01T17:46:49.197Z,197.40
2019-03-01T17:49:25.019Z,141.30
2019-03-01T17:51:59.854Z,159.07
2019-03-01T17:54:34.668Z,64.93
2019-03-01T17:57:09.424Z,63.97
2019-03-01T17:59:44.680Z,65.33
2019-03-01T18:02:20.703Z,65.43
2019-03-01T18:04:55.707Z,65.43
2019-03-01T18:07:30.546Z,73.07
2019-03-01T18:10:07.271Z,65.83
2019-03-01T18:12:42.640Z,67.63
2019-03-01T18:15:17.498Z,73.20
2019-03-01T18:17:52.482Z,65.73
2019-03-01T18:20:33.910Z,66.93
2019-03-01T18:23:07.217Z,64.97
2019-03-01T18:25:42.201Z,71.80
2019-03-01T18:28:17.109Z,70.00
2019-03-01T18:30:55.568Z,72.30
2019-03-01T18:33:28.616Z,69.80
2019-03-01T18:36:03.422Z,66.87
2019-03-01T18:38:38.182Z,67.63
2019-03-01T18:41:13.151Z,70.07
2019-03-01T18:43:49.428Z,71.00
2019-03-01T18:46:30.134Z,72.03
2019-03-01T18:49:07.918Z,71.00
2019-03-01T18:51:43.537Z,71.70
2019-03-01T18:54:18.402Z,70.30
2019-03-01T18:56:53.147Z,71.07
2019-03-01T18:59:29.237Z,73.87
2019-03-01T19:02:30.090Z,88.37
2019-03-01T19:05:07.655Z,70.13
2019-03-01T19:07:42.936Z,66.03
2019-03-01T19:10:18.331Z,58.00
2019-03-01T19:12:53.548Z,69.10
2019-03-01T19:15:28.660Z,69.37
2019-03-01T19:18:04.298Z,80.03
2019-03-01T19:20:41.457Z,106.77
2019-03-01T19:23:15.902Z,83.30
2019-03-01T19:25:54.064Z,85.43
2019-03-01T19:31:24.528Z,71.53
2019-03-01T19:34:00.249Z,75.40
2019-03-01T19:36:38.799Z,75.80
2019-03-01T19:39:19.915Z,73.73
2019-03-01T19:41:58.221Z,79.33
2019-03-01T19:44:34.363Z,74.17
2019-03-01T19:47:09.282Z,76.30
2019-03-01T19:49:45.194Z,105.27
2019-03-01T19:52:23.687Z,68.07
2019-03-01T19:54:58.710Z,69.27
2019-03-01T19:57:36.320Z,66.03
2019-03-01T20:00:13.308Z,77.47
2019-03-01T20:02:49.514Z,71.37
2019-03-01T20:05:27.789Z,72.53
2019-03-01T20:08:02.284Z,76.40
2019-03-01T20:10:37.337Z,66.77
2019-03-01T20:13:13.025Z,63.57
2019-03-01T20:15:49.012Z,65.83
2019-03-01T20:18:23.796Z,65.57
2019-03-01T20:20:58.759Z,67.13
2019-03-01T20:23:33.681Z,68.70
2019-03-01T20:26:08.532Z,64.33
2019-03-01T20:28:43.462Z,64.40
2019-03-01T20:31:18.259Z,68.37
2019-03-01T20:33:53.309Z,65.67
2019-03-01T20:36:28.336Z,64.67
2019-03-01T20:39:03.383Z,65.53
2019-03-01T20:41:46.201Z,68.17
2019-03-01T20:44:18.599Z,61.53
2019-03-01T20:46:53.944Z,65.53
2019-03-01T20:49:30.033Z,61.50
2019-03-01T20:52:05.067Z,62.30
2019-03-01T20:54:43.010Z,60.50
2019-03-01T20:57:17.840Z,62.40
2019-03-01T21:07:03.321Z,60.30
2019-03-01T21:10:31.540Z,67.63
2019-03-01T21:13:26.995Z,60.67
2019-03-01T21:20:19.559Z,61.10
2019-03-01T21:23:37.905Z,55.27
2019-03-01T21:26:26.266Z,59.83
2019-03-01T21:29:13.512Z,57.60
2019-03-01T21:31:55.734Z,57.07
2019-03-01T21:34:44.256Z,61.67
2019-03-01T21:37:30.884Z,54.83
2019-03-01T21:40:44.282Z,55.60
2019-03-01T21:43:38.657Z,54.93
2019-03-01T21:46:39.434Z,55.17
2019-03-01T21:49:14.192Z,51.00
2019-03-01T21:51:51.684Z,52.07
2019-03-01T21:54:25.554Z,53.13
2019-03-01T21:57:00.305Z,57.50
2019-03-01T21:59:35.184Z,53.40
2019-03-01T22:02:10.035Z,51.93
2019-03-01T22:04:44.820Z,49.47
2019-03-01T22:07:19.619Z,52.47
2019-03-01T22:09:56.691Z,51.03
2019-03-01T22:12:30.879Z,49.50
2019-03-01T22:15:08.682Z,49.88
2019-03-01T22:17:45.458Z,49.27
2019-03-01T22:20:20.998Z,48.77
2019-03-01T22:22:55.735Z,48.03
2019-03-01T22:25:30.547Z,48.47
2019-03-01T22:28:05.280Z,50.10
2019-03-01T22:30:40.158Z,49.20
2019-03-01T22:33:17.440Z,48.27
2019-03-01T22:35:51.423Z,51.50
2019-03-01T22:38:26.199Z,48.33
2019-03-01T22:41:04.000Z,49.57
2019-03-01T22:43:37.424Z,48.53
2019-03-01T22:46:13.430Z,49.93
2019-03-01T22:48:53.076Z,51.77
2019-03-01T22:51:24.694Z,52.20
2019-03-01T22:53:59.656Z,49.23
2019-03-01T22:56:34.502Z,52.53
2019-03-01T22:59:11.924Z,51.43
2019-03-01T23:01:51.259Z,48.60
2019-03-01T23:04:26.590Z,48.73
2019-03-01T23:07:02.513Z,48.30
2019-03-01T23:09:37.244Z,48.90
2019-03-01T23:12:12.358Z,49.30
2019-03-01T23:14:47.104Z,47.73
2019-03-01T23:17:21.914Z,48.60
2019-03-01T23:19:56.705Z,50.60
2019-03-01T23:22:31.532Z,49.30
2019-03-01T23:25:07.579Z,49.13
2019-03-01T23:27:42.975Z,50.63
2019-03-01T23:30:19.127Z,48.23
2019-03-01T23:32:55.909Z,50.20
2019-03-01T23:35:30.371Z,49.33
2019-03-01T23:38:05.199Z,54.03
2019-03-01T23:40:40.015Z,53.40
2019-03-01T23:43:14.818Z,54.40
2019-03-01T23:45:50.027Z,51.23
2019-03-01T23:48:26.113Z,49.57
2019-03-01T23:51:00.871Z,49.03
2019-03-01T23:53:35.770Z,48.33
2019-03-01T23:56:10.675Z,48.93
2019-03-01T23:58:47.997Z,51.73
